createdAt,value
2022-12-27T00:00:00.110Z,2.7
2022-12-27T00:05:00.128Z,1.7
2022-12-27T00:10:00.152Z,2.2
2022-12-27T00:15:00.108Z,1.8
2022-12-27T00:20:02.937Z,4.5
2022-12-27T00:25:00.125Z,3.6
2022-12-27T00:30:00.111Z,3.6
2022-12-27T00:35:00.137Z,2
2022-12-27T00:40:00.147Z,2.3
2022-12-27T00:45:00.123Z,2.8
2022-12-27T00:50:00.101Z,4.9
2022-12-27T00:55:00.140Z,3.3
2022-12-27T01:00:03.460Z,3.3
2022-12-27T01:05:00.130Z,2.9
2022-12-27T01:10:00.100Z,2.3
2022-12-27T01:15:00.107Z,2.3
2022-12-27T01:20:00.122Z,3.1
2022-12-27T01:25:00.141Z,2.4
2022-12-27T01:30:00.088Z,2.4
2022-12-27T01:35:00.119Z,5.3
2022-12-27T01:40:00.112Z,1.8
2022-12-27T01:45:00.116Z,2.4
2022-12-27T01:50:00.103Z,3.5
2022-12-27T01:55:00.119Z,4.6
2022-12-27T02:00:00.128Z,4.6
2022-12-27T02:05:00.133Z,3
2022-12-27T02:10:00.099Z,4.4
2022-12-27T02:15:00.112Z,3.3
2022-12-27T02:20:00.116Z,5.6
2022-12-27T02:25:00.118Z,3.9
2022-12-27T02:30:00.090Z,3.9
2022-12-27T02:35:00.112Z,1.5
2022-12-27T02:40:00.111Z,2.9
2022-12-27T02:45:00.096Z,5.2
2022-12-27T02:50:00.118Z,2.8
2022-12-27T02:55:00.129Z,3.8
2022-12-27T03:00:00.113Z,3.8
2022-12-27T03:05:00.109Z,4
2022-12-27T03:10:00.122Z,6
2022-12-27T03:15:00.142Z,2.3
2022-12-27T03:20:00.115Z,4.4
2022-12-27T03:25:00.121Z,7.1
2022-12-27T03:30:00.105Z,7.1
2022-12-27T03:35:00.099Z,2.6
2022-12-27T03:40:00.116Z,2.7
2022-12-27T03:45:00.105Z,4.5
2022-12-27T03:50:00.125Z,4.2
2022-12-27T03:55:00.102Z,2
2022-12-27T04:00:00.112Z,2
2022-12-27T04:05:00.123Z,4.8
2022-12-27T04:10:00.151Z,3
2022-12-27T04:15:00.120Z,3.9
2022-12-27T04:20:00.142Z,4.4
2022-12-27T04:25:00.108Z,4.8
2022-12-27T04:30:00.098Z,4.8
2022-12-27T04:35:00.113Z,2.5
2022-12-27T04:40:00.172Z,2.8
2022-12-27T04:45:00.108Z,3.2
2022-12-27T04:50:00.122Z,2.9
2022-12-27T04:55:00.133Z,3.7
2022-12-27T05:00:00.102Z,3.7
2022-12-27T05:05:00.134Z,4
2022-12-27T05:10:00.112Z,3.8
2022-12-27T05:15:00.117Z,4.1
2022-12-27T05:20:00.156Z,2.8
2022-12-27T05:25:00.099Z,3.6
2022-12-27T05:30:00.118Z,3.6
2022-12-27T05:35:00.115Z,4
2022-12-27T05:40:00.146Z,5
2022-12-27T05:45:00.103Z,2.7
2022-12-27T05:50:00.118Z,6.6
2022-12-27T05:55:00.130Z,3
2022-12-27T06:00:00.129Z,3
2022-12-27T06:05:00.113Z,3
2022-12-27T06:10:00.131Z,4.1
2022-12-27T06:15:00.130Z,2.4
2022-12-27T06:20:00.121Z,2.5
2022-12-27T06:25:00.149Z,3.2
2022-12-27T06:30:00.111Z,3.2
2022-12-27T06:35:00.147Z,3.4
2022-12-27T06:40:00.115Z,4.2
2022-12-27T06:45:00.130Z,5.2
2022-12-27T06:50:00.131Z,4.3
2022-12-27T06:55:00.119Z,6.1
2022-12-27T07:00:00.138Z,6.1
2022-12-27T07:05:00.129Z,5.7
2022-12-27T07:10:00.115Z,6.6
2022-12-27T07:15:00.120Z,3.2
2022-12-27T07:20:00.112Z,5.1
2022-12-27T07:25:00.121Z,4.1
2022-12-27T07:30:00.127Z,4.1
2022-12-27T07:35:00.145Z,4.9
2022-12-27T07:40:00.107Z,7.1
2022-12-27T07:45:00.118Z,6.2
2022-12-27T07:50:00.108Z,5.2
2022-12-27T07:55:00.126Z,6.7
2022-12-27T08:00:00.108Z,6.7
2022-12-27T08:05:00.109Z,5.2
2022-12-27T08:10:00.114Z,7.6
2022-12-27T08:15:00.105Z,6.7
2022-12-27T08:20:00.128Z,11.1
2022-12-27T08:25:00.117Z,8.2
2022-12-27T08:30:00.130Z,8.2
2022-12-27T08:35:18.182Z,7
2022-12-27T08:40:02.795Z,5.9
2022-12-27T08:45:00.104Z,6.8
2022-12-27T08:50:00.130Z,7.7
2022-12-27T08:55:00.129Z,7.6
2022-12-27T09:00:00.097Z,7.6
2022-12-27T09:05:00.103Z,7.3
2022-12-27T09:10:00.103Z,8
2022-12-27T09:15:00.089Z,6.2
2022-12-27T09:20:00.131Z,4.7
2022-12-27T09:25:00.165Z,5
2022-12-27T09:30:00.076Z,5
2022-12-27T09:35:00.114Z,6.9
2022-12-27T09:40:00.118Z,5.4
2022-12-27T09:45:00.095Z,7.1
2022-12-27T09:50:00.135Z,5.8
2022-12-27T09:55:04.594Z,6.4
2022-12-27T10:00:00.111Z,6.4
2022-12-27T10:10:00.101Z,6.2
2022-12-27T10:15:00.105Z,8.1
2022-12-27T10:20:00.105Z,6.3
2022-12-27T10:25:00.149Z,6.3
2022-12-27T10:30:00.167Z,6.3
2022-12-27T10:35:00.184Z,5.5
2022-12-27T10:40:00.133Z,7.2
2022-12-27T10:45:00.108Z,5.8
2022-12-27T10:50:00.150Z,8.1
2022-12-27T10:55:00.123Z,7.4
2022-12-27T11:00:00.108Z,7.4
2022-12-27T11:05:00.127Z,8
2022-12-27T11:10:00.106Z,9.5
2022-12-27T11:15:00.130Z,4.9
2022-12-27T11:20:00.102Z,8.4
2022-12-27T11:25:00.117Z,7.6
2022-12-27T11:30:00.235Z,7.6
2022-12-27T11:35:00.215Z,6.3
2022-12-27T11:40:00.115Z,6.7
2022-12-27T11:45:00.107Z,8.1
2022-12-27T11:50:00.114Z,8
2022-12-27T11:55:00.110Z,7.5
2022-12-27T12:00:00.096Z,7.5
2022-12-27T12:05:00.171Z,5.5
2022-12-27T12:10:00.092Z,6
2022-12-27T12:15:00.129Z,8.3
2022-12-27T12:20:00.155Z,6.6
2022-12-27T12:25:00.135Z,7.5
2022-12-27T12:30:00.136Z,7.5
2022-12-27T12:35:00.172Z,6.3
2022-12-27T12:40:00.098Z,6.3
2022-12-27T12:45:00.159Z,7.3
2022-12-27T12:50:00.128Z,5.3
2022-12-27T12:55:00.133Z,3.9
2022-12-27T13:00:00.120Z,3.9
2022-12-27T13:05:00.128Z,5.6
2022-12-27T13:10:00.141Z,5
2022-12-27T13:15:00.117Z,4.8
2022-12-27T13:20:00.219Z,2.9
2022-12-27T13:25:00.122Z,4.9
2022-12-27T13:30:04.688Z,4.9
2022-12-27T13:35:00.128Z,5.5
2022-12-27T13:40:00.148Z,6.7
2022-12-27T13:45:00.137Z,6.3
2022-12-27T13:50:00.133Z,6.8
2022-12-27T13:55:00.129Z,7.9
2022-12-27T14:00:00.124Z,7.9
2022-12-27T14:05:00.156Z,5.2
2022-12-27T14:10:00.110Z,6.7
2022-12-27T14:15:00.125Z,6
2022-12-27T14:20:00.127Z,4.9
2022-12-27T14:25:00.134Z,6
2022-12-27T14:30:00.117Z,6
2022-12-27T14:35:00.265Z,6.2
2022-12-27T14:40:00.152Z,6.9
2022-12-27T14:45:00.255Z,3.4
2022-12-27T14:50:00.178Z,7.2
2022-12-27T14:55:00.090Z,4.7
2022-12-27T15:00:00.123Z,4.7
2022-12-27T15:05:00.115Z,8.7
2022-12-27T15:10:00.082Z,6.8
2022-12-27T15:15:00.104Z,7.6
2022-12-27T15:20:00.114Z,14.4
2022-12-27T15:25:00.111Z,5.4
2022-12-27T15:30:00.082Z,5.4
2022-12-27T15:35:00.123Z,6
2022-12-27T15:40:00.098Z,6.8
2022-12-27T15:45:00.120Z,9.9
2022-12-27T15:50:00.149Z,7.6
2022-12-27T15:55:00.146Z,8.5
2022-12-27T16:00:00.195Z,8.5
2022-12-27T16:05:00.134Z,10.2
2022-12-27T16:10:00.187Z,7.8
2022-12-27T16:15:00.128Z,11.3
2022-12-27T16:20:00.132Z,5.9
2022-12-27T16:25:00.183Z,9.5
2022-12-27T16:30:00.109Z,9.5
2022-12-27T16:35:00.146Z,8.4
2022-12-27T16:40:00.115Z,9.1
2022-12-27T16:45:00.156Z,10.1
2022-12-27T16:50:00.145Z,5.4
2022-12-27T16:55:00.115Z,7.8
2022-12-27T17:00:00.148Z,7.8
2022-12-27T17:05:00.184Z,8
2022-12-27T17:10:00.135Z,11.9
2022-12-27T17:15:00.190Z,8.8
2022-12-27T17:20:00.125Z,8.2
2022-12-27T17:25:00.134Z,6.4
2022-12-27T17:30:00.123Z,6.4
2022-12-27T17:35:00.135Z,9.9
2022-12-27T17:40:00.103Z,12.1
2022-12-27T17:45:00.134Z,5.8
2022-12-27T17:50:00.129Z,8.4
2022-12-27T17:55:00.154Z,10.4
2022-12-27T18:00:00.136Z,10.4
2022-12-27T18:05:00.152Z,6.4
2022-12-27T18:10:00.097Z,6.5
2022-12-27T18:15:00.104Z,7.6
2022-12-27T18:20:00.142Z,10.5
2022-12-27T18:25:00.132Z,9.6
2022-12-27T18:30:00.127Z,9.6
2022-12-27T18:35:00.144Z,8.5
2022-12-27T18:40:00.147Z,14.1
2022-12-27T18:45:00.125Z,7.9
2022-12-27T18:50:00.140Z,14.2
2022-12-27T18:55:00.143Z,11.1
2022-12-27T19:00:00.115Z,11.1
2022-12-27T19:05:00.103Z,6.9
2022-12-27T19:10:00.127Z,9.1
2022-12-27T19:15:00.121Z,9.2
2022-12-27T19:20:00.136Z,9.9
2022-12-27T19:25:00.148Z,10.5
2022-12-27T19:30:00.135Z,10.5
2022-12-27T19:35:00.131Z,8.1
2022-12-27T19:40:00.183Z,8.9
2022-12-27T19:45:00.138Z,12.7
2022-12-27T19:50:00.149Z,10.9
2022-12-27T19:55:00.141Z,11.6
2022-12-27T20:00:00.091Z,11.6
2022-12-27T20:05:00.116Z,12.8
2022-12-27T20:10:00.097Z,9.1
2022-12-27T20:15:00.151Z,15.7
2022-12-27T20:20:00.091Z,8.5
2022-12-27T20:25:00.145Z,10.8
2022-12-27T20:30:00.106Z,10.8
2022-12-27T20:35:00.122Z,10.3
2022-12-27T20:40:00.163Z,10.4
2022-12-27T20:45:00.149Z,11.1
2022-12-27T20:50:00.106Z,10.5
2022-12-27T20:55:00.148Z,13.6
2022-12-27T21:00:00.115Z,13.6
2022-12-27T21:05:00.141Z,9.4
2022-12-27T21:10:00.142Z,13.7
2022-12-27T21:15:00.103Z,11.8
2022-12-27T21:20:00.138Z,13.9
2022-12-27T21:25:00.117Z,12.1
2022-12-27T21:30:00.127Z,12.1
2022-12-27T21:35:00.144Z,9.6
2022-12-27T21:40:00.152Z,11.2
2022-12-27T21:45:00.141Z,11.4
2022-12-27T21:50:00.132Z,7.7
2022-12-27T21:55:00.124Z,11.6
2022-12-27T22:00:00.141Z,11.6
2022-12-27T22:05:00.193Z,9.1
2022-12-27T22:10:00.121Z,7.9
2022-12-27T22:15:00.143Z,8.9
2022-12-27T22:20:00.136Z,8.8
2022-12-27T22:25:00.113Z,7.8
2022-12-27T22:30:00.121Z,7.8
2022-12-27T22:35:00.133Z,8.1
2022-12-27T22:40:00.117Z,11.1
2022-12-27T22:45:00.127Z,9.5
2022-12-27T22:50:00.136Z,10.8
2022-12-27T22:55:03.810Z,7.9
2022-12-27T23:00:00.100Z,7.9
2022-12-27T23:05:00.189Z,18.7
2022-12-27T23:10:00.128Z,11.6
2022-12-27T23:15:00.162Z,10.1
2022-12-27T23:20:00.132Z,13.1
2022-12-27T23:25:00.137Z,9.7
2022-12-27T23:30:00.151Z,9.7
2022-12-27T23:35:00.171Z,7.9
2022-12-27T23:40:00.083Z,10.1
2022-12-27T23:45:00.121Z,17.5
2022-12-27T23:50:00.142Z,9.4
2022-12-27T23:55:00.123Z,15.3
